Time;durP1;ratioP1;P1;durP2;ratioP2;P2;SDS_P1;SDS_P2;PMS_P1;PMS_P2;Temp;Humidity;BMP_temperature;BMP_pressure;BME280_temperature;BME280_humidity;BME280_pressure;Samples;Min_cycle;Max_cycle;Signal;HPM_P1;HPM_P2
2022/04/11 00:00:34;;;;;;;4.45;2.75;;;;;;;;;;5042990;28;20025;-73
2022/04/11 00:03:00;;;;;;;5.03;2.60;;;;;;;;;;5039738;28;20384;-73
2022/04/11 00:05:26;;;;;;;5.65;3.33;;;;;;;;;;5039302;28;20120;-73
2022/04/11 00:07:52;;;;;;;6.05;2.63;;;;;;;;;;5044066;28;20029;-73
2022/04/11 00:10:19;;;;;;;5.13;2.47;;;;;;;;;;5027107;28;20037;-73
2022/04/11 00:12:45;;;;;;;7.40;2.83;;;;;;;;;;5043503;28;20395;-73
2022/04/11 00:15:11;;;;;;;10.35;3.03;;;;;;;;;;5042058;28;20093;-73
2022/04/11 00:17:37;;;;;;;18.70;2.90;;;;;;;;;;5043493;28;20497;-72
2022/04/11 00:20:04;;;;;;;9.05;2.28;;;;;;;;;;5046281;28;20025;-73
2022/04/11 00:22:30;;;;;;;6.60;2.58;;;;;;;;;;5045365;28;20032;-73
2022/04/11 00:24:56;;;;;;;5.40;2.78;;;;;;;;;;5024701;28;20082;-73
2022/04/11 00:27:22;;;;;;;3.10;2.03;;;;;;;;;;5041308;28;20039;-73
2022/04/11 00:29:48;;;;;;;7.78;2.33;;;;;;;;;;5041519;28;20454;-73
2022/04/11 00:32:14;;;;;;;9.02;2.55;;;;;;;;;;5043586;28;20022;-73
2022/04/11 00:34:41;;;;;;;4.55;2.97;;;;;;;;;;5040763;28;20033;-73
2022/04/11 00:37:07;;;;;;;3.55;2.70;;;;;;;;;;5033589;28;20040;-73
2022/04/11 00:39:33;;;;;;;4.60;2.33;;;;;;;;;;5044158;28;20025;-73
2022/04/11 00:42:06;;;;;;;3.17;2.35;;;;;;;;;;5039504;28;20099;-73
2022/04/11 00:44:32;;;;;;;5.05;2.63;;;;;;;;;;5038017;28;20359;-73
2022/04/11 00:46:58;;;;;;;6.85;2.40;;;;;;;;;;5042878;28;20032;-73
2022/04/11 00:49:24;;;;;;;4.60;2.25;;;;;;;;;;5042197;28;20112;-73
2022/04/11 00:51:51;;;;;;;6.15;2.40;;;;;;;;;;5045328;28;20029;-72
2022/04/11 00:54:17;;;;;;;6.63;2.40;;;;;;;;;;5040177;28;20029;-73
2022/04/11 00:56:44;;;;;;;7.95;2.85;;;;;;;;;;5047389;28;20030;-73
2022/04/11 00:59:12;;;;;;;9.25;2.40;;;;;;;;;;5040950;28;20032;-73
2022/04/11 01:01:39;;;;;;;8.57;3.22;;;;;;;;;;5046781;28;20449;-73
2022/04/11 01:04:05;;;;;;;10.18;3.20;;;;;;;;;;5045669;28;20029;-72
2022/04/11 01:06:31;;;;;;;4.35;2.20;;;;;;;;;;5048822;28;20565;-73
2022/04/11 01:08:58;;;;;;;6.32;2.22;;;;;;;;;;5041964;28;20033;-72
2022/04/11 01:11:24;;;;;;;3.40;2.45;;;;;;;;;;5047110;28;20453;-74
2022/04/11 01:13:50;;;;;;;3.83;2.40;;;;;;;;;;5044436;28;20021;-75
2022/04/11 01:16:27;;;;;;;7.57;3.20;;;;;;;;;;5045622;28;20021;-74
2022/04/11 01:18:53;;;;;;;5.40;2.15;;;;;;;;;;5039250;28;20029;-73
2022/04/11 01:21:19;;;;;;;5.78;2.47;;;;;;;;;;5040349;28;20025;-73
2022/04/11 01:23:45;;;;;;;9.00;2.92;;;;;;;;;;5044351;28;20025;-73
2022/04/11 01:26:11;;;;;;;4.60;2.30;;;;;;;;;;5042698;28;20025;-73
2022/04/11 01:28:40;;;;;;;4.80;2.40;;;;;;;;;;5047632;28;20120;-74
2022/04/11 01:31:06;;;;;;;4.15;2.40;;;;;;;;;;5046265;28;20418;-73
2022/04/11 01:33:32;;;;;;;5.93;2.53;;;;;;;;;;5030710;28;20435;-73
2022/04/11 01:35:59;;;;;;;5.72;2.75;;;;;;;;;;5043493;28;20053;-72
2022/04/11 01:38:25;;;;;;;5.22;2.65;;;;;;;;;;5050333;28;20032;-72
2022/04/11 01:40:52;;;;;;;5.97;3.05;;;;;;;;;;5040942;28;20791;-72
2022/04/11 01:43:18;;;;;;;5.97;2.75;;;;;;;;;;5047713;28;20039;-72
2022/04/11 01:45:44;;;;;;;5.38;2.95;;;;;;;;;;5023389;28;20439;-73
2022/04/11 01:48:10;;;;;;;5.53;2.72;;;;;;;;;;5041963;28;20021;-73
2022/04/11 01:50:36;;;;;;;4.68;2.53;;;;;;;;;;5043667;28;20071;-73
2022/04/11 01:53:06;;;;;;;4.35;2.67;;;;;;;;;;5037923;28;20039;-73
2022/04/11 01:55:32;;;;;;;5.03;2.53;;;;;;;;;;5044426;28;20132;-73
2022/04/11 01:57:59;;;;;;;5.30;2.50;;;;;;;;;;5041475;28;20031;-73
2022/04/11 02:00:26;;;;;;;3.47;2.95;;;;;;;;;;5041488;28;20029;-73
2022/04/11 02:02:52;;;;;;;7.68;3.00;;;;;;;;;;5043632;28;20079;-72
2022/04/11 02:05:18;;;;;;;6.25;3.00;;;;;;;;;;5046174;28;20033;-72
2022/04/11 02:07:44;;;;;;;5.35;3.28;;;;;;;;;;5044369;28;20063;-73
2022/04/11 02:10:11;;;;;;;6.53;2.88;;;;;;;;;;5046484;28;20487;-72
2022/04/11 02:12:38;;;;;;;5.47;2.42;;;;;;;;;;5042318;28;20045;-74
2022/04/11 02:15:05;;;;;;;5.80;2.30;;;;;;;;;;5045945;28;20457;-73
2022/04/11 02:17:31;;;;;;;4.63;2.85;;;;;;;;;;5041639;28;20036;-72
2022/04/11 02:19:57;;;;;;;4.60;2.10;;;;;;;;;;5045307;28;20067;-72
2022/04/11 02:22:23;;;;;;;4.35;2.75;;;;;;;;;;5040757;28;20032;-72
2022/04/11 02:24:50;;;;;;;5.57;2.45;;;;;;;;;;5035549;28;20037;-72
2022/04/11 02:27:16;;;;;;;4.60;2.40;;;;;;;;;;5037589;28;20056;-73
2022/04/11 02:29:42;;;;;;;4.07;2.42;;;;;;;;;;5038395;28;20036;-73
2022/04/11 02:32:08;;;;;;;3.13;2.38;;;;;;;;;;5043311;28;20036;-73
2022/04/11 02:34:34;;;;;;;11.27;2.90;;;;;;;;;;5040677;28;20028;-73
2022/04/11 02:37:01;;;;;;;4.00;2.40;;;;;;;;;;5039491;28;20537;-73
2022/04/11 02:39:27;;;;;;;4.97;3.15;;;;;;;;;;5025576;28;20040;-74
2022/04/11 02:41:53;;;;;;;5.65;2.40;;;;;;;;;;5039882;28;20459;-73
2022/04/11 02:44:19;;;;;;;3.90;2.25;;;;;;;;;;5047514;28;20135;-73
2022/04/11 02:46:45;;;;;;;4.13;2.53;;;;;;;;;;5042019;28;20702;-72
2022/04/11 02:49:11;;;;;;;4.95;2.30;;;;;;;;;;5039003;28;20369;-73
2022/04/11 02:51:37;;;;;;;5.82;2.97;;;;;;;;;;5035186;28;20029;-71
2022/04/11 02:54:07;;;;;;;3.58;2.17;;;;;;;;;;5039644;28;20025;-73
2022/04/11 02:56:36;;;;;;;6.80;2.80;;;;;;;;;;5039982;28;20032;-72
2022/04/11 02:59:02;;;;;;;5.78;2.30;;;;;;;;;;5038975;28;20025;-72
2022/04/11 03:01:28;;;;;;;2.83;2.30;;;;;;;;;;5037763;28;20083;-72
2022/04/11 03:03:54;;;;;;;4.55;2.30;;;;;;;;;;5042339;28;20031;-73
2022/04/11 03:06:20;;;;;;;10.00;3.15;;;;;;;;;;5047219;28;20045;-74
2022/04/11 03:08:47;;;;;;;5.72;2.50;;;;;;;;;;5046082;28;20040;-73
2022/04/11 03:11:13;;;;;;;4.30;2.90;;;;;;;;;;5043257;28;20030;-72
2022/04/11 03:13:39;;;;;;;7.47;2.55;;;;;;;;;;5041633;28;20021;-73
2022/04/11 03:16:05;;;;;;;9.02;2.63;;;;;;;;;;5043767;28;20091;-73
2022/04/11 03:18:31;;;;;;;5.55;2.20;;;;;;;;;;5040103;28;20032;-72
2022/04/11 03:20:57;;;;;;;6.20;2.58;;;;;;;;;;5043760;28;20021;-73
2022/04/11 03:23:23;;;;;;;7.05;2.63;;;;;;;;;;5043339;28;20107;-72
2022/04/11 03:25:49;;;;;;;4.10;2.30;;;;;;;;;;5020191;28;20229;-72
2022/04/11 03:28:15;;;;;;;6.00;2.60;;;;;;;;;;5044289;28;20380;-72
2022/04/11 03:30:41;;;;;;;5.78;3.53;;;;;;;;;;5043405;28;20048;-73
2022/04/11 03:33:08;;;;;;;7.38;2.35;;;;;;;;;;5041645;28;20029;-74
2022/04/11 03:35:34;;;;;;;5.30;2.55;;;;;;;;;;5044551;28;20029;-73
2022/04/11 03:38:00;;;;;;;5.38;2.47;;;;;;;;;;5045353;28;20288;-74
2022/04/11 03:40:26;;;;;;;3.35;2.45;;;;;;;;;;5040472;28;20051;-74
2022/04/11 03:42:52;;;;;;;3.85;2.40;;;;;;;;;;5045509;28;20071;-74
2022/04/11 03:45:18;;;;;;;4.25;2.20;;;;;;;;;;5036644;28;20025;-72
2022/04/11 03:47:44;;;;;;;7.00;3.03;;;;;;;;;;5040268;28;20029;-72
2022/04/11 03:50:10;;;;;;;6.07;2.53;;;;;;;;;;5042766;28;20643;-73
2022/04/11 03:52:36;;;;;;;6.13;2.72;;;;;;;;;;5041844;28;20036;-74
2022/04/11 03:55:03;;;;;;;5.15;2.30;;;;;;;;;;5042697;28;20104;-72
2022/04/11 03:57:29;;;;;;;6.65;2.25;;;;;;;;;;5041819;28;20426;-73
2022/04/11 03:59:56;;;;;;;5.60;2.45;;;;;;;;;;5025762;28;20030;-73
2022/04/11 04:02:22;;;;;;;3.67;2.58;;;;;;;;;;5035137;28;20040;-74
2022/04/11 04:04:48;;;;;;;6.97;2.58;;;;;;;;;;5038716;28;20033;-73
2022/04/11 04:07:14;;;;;;;3.03;2.22;;;;;;;;;;5036097;28;20052;-72
2022/04/11 04:09:40;;;;;;;6.63;2.63;;;;;;;;;;5035301;28;20533;-72
2022/04/11 04:12:06;;;;;;;2.70;2.17;;;;;;;;;;5038912;28;20037;-73
2022/04/11 04:14:32;;;;;;;3.95;2.25;;;;;;;;;;5035200;28;20750;-72
2022/04/11 04:16:58;;;;;;;6.03;2.45;;;;;;;;;;5034609;28;20117;-72
2022/04/11 04:19:25;;;;;;;8.40;3.08;;;;;;;;;;5042681;28;20443;-73
2022/04/11 04:21:51;;;;;;;3.42;2.40;;;;;;;;;;5043824;28;20033;-72
2022/04/11 04:24:22;;;;;;;4.05;2.28;;;;;;;;;;5040405;28;20091;-72
2022/04/11 04:26:48;;;;;;;6.10;2.72;;;;;;;;;;5042100;28;20044;-73
2022/04/11 04:29:16;;;;;;;3.40;2.22;;;;;;;;;;5036807;28;20029;-74
2022/04/11 04:31:43;;;;;;;4.68;2.58;;;;;;;;;;5042721;28;20525;-72
2022/04/11 04:34:10;;;;;;;6.38;2.97;;;;;;;;;;5044527;28;20041;-73
2022/04/11 04:36:36;;;;;;;5.70;3.22;;;;;;;;;;5042308;28;20094;-73
2022/04/11 04:39:02;;;;;;;5.05;2.53;;;;;;;;;;5043650;28;20028;-74
2022/04/11 04:41:29;;;;;;;9.32;2.50;;;;;;;;;;5043794;28;20441;-73
2022/04/11 04:43:55;;;;;;;5.25;2.53;;;;;;;;;;5045207;28;20025;-73
2022/04/11 04:46:21;;;;;;;7.45;2.75;;;;;;;;;;5047718;28;20029;-73
2022/04/11 04:48:47;;;;;;;7.28;2.97;;;;;;;;;;5049520;28;20032;-73
2022/04/11 04:51:13;;;;;;;5.63;2.50;;;;;;;;;;5047831;28;20036;-73
2022/04/11 04:53:39;;;;;;;9.68;2.70;;;;;;;;;;5044379;28;20074;-74
2022/04/11 04:56:06;;;;;;;5.15;3.03;;;;;;;;;;5044920;28;20079;-73
2022/04/11 04:58:32;;;;;;;6.50;2.53;;;;;;;;;;5046791;28;20039;-73
2022/04/11 05:00:58;;;;;;;7.97;2.90;;;;;;;;;;5047279;28;20386;-72
2022/04/11 05:03:24;;;;;;;5.80;2.58;;;;;;;;;;5047221;28;20083;-72
2022/04/11 05:05:50;;;;;;;4.55;2.72;;;;;;;;;;5045962;28;20530;-73
2022/04/11 05:08:16;;;;;;;5.55;2.75;;;;;;;;;;5044977;28;20029;-73
2022/04/11 05:10:42;;;;;;;6.53;2.75;;;;;;;;;;5043863;28;20092;-73
2022/04/11 05:13:08;;;;;;;5.70;2.40;;;;;;;;;;5041731;28;20087;-73
2022/04/11 05:15:34;;;;;;;5.65;2.53;;;;;;;;;;5041401;28;20064;-73
2022/04/11 05:18:00;;;;;;;8.25;2.40;;;;;;;;;;5046537;28;20515;-72
2022/04/11 05:20:26;;;;;;;6.57;2.50;;;;;;;;;;5045439;28;20064;-72
2022/04/11 05:22:52;;;;;;;6.18;2.47;;;;;;;;;;5046688;28;20036;-73
2022/04/11 05:25:19;;;;;;;4.57;2.40;;;;;;;;;;5038987;28;20096;-72
2022/04/11 05:27:45;;;;;;;4.15;2.60;;;;;;;;;;5045253;28;20025;-73
2022/04/11 05:30:11;;;;;;;7.82;2.88;;;;;;;;;;5025337;28;20033;-73
2022/04/11 05:32:37;;;;;;;4.25;2.90;;;;;;;;;;5041896;28;20028;-73
2022/04/11 05:35:04;;;;;;;6.22;3.25;;;;;;;;;;5046304;28;20044;-73
2022/04/11 05:37:30;;;;;;;3.38;2.60;;;;;;;;;;5046100;28;20021;-73
2022/04/11 05:39:56;;;;;;;5.43;2.83;;;;;;;;;;5039044;28;20025;-73
2022/04/11 05:42:22;;;;;;;3.97;2.30;;;;;;;;;;5040011;28;20040;-74
2022/04/11 05:44:48;;;;;;;7.47;2.72;;;;;;;;;;5041124;28;20372;-74
2022/04/11 05:47:14;;;;;;;7.35;2.67;;;;;;;;;;5042123;28;20060;-73
2022/04/11 05:49:40;;;;;;;6.53;2.70;;;;;;;;;;5042862;28;20537;-72
2022/04/11 05:52:08;;;;;;;2.97;2.13;;;;;;;;;;5044095;28;20112;-72
2022/04/11 05:54:36;;;;;;;7.00;2.80;;;;;;;;;;5043747;28;20087;-73
2022/04/11 05:57:03;;;;;;;6.47;2.30;;;;;;;;;;5048046;28;20021;-72
2022/04/11 05:59:29;;;;;;;5.85;2.50;;;;;;;;;;5043940;28;20073;-73
2022/04/11 06:01:55;;;;;;;4.18;2.55;;;;;;;;;;5020083;28;20376;-73
2022/04/11 06:04:21;;;;;;;6.80;3.00;;;;;;;;;;5041930;28;20040;-72
2022/04/11 06:06:47;;;;;;;5.05;2.60;;;;;;;;;;5045475;28;20103;-74
2022/04/11 06:09:13;;;;;;;3.30;2.50;;;;;;;;;;5041618;28;20691;-73
2022/04/11 06:11:39;;;;;;;3.85;2.17;;;;;;;;;;5041918;28;20032;-73
2022/04/11 06:14:05;;;;;;;5.03;3.22;;;;;;;;;;5044957;28;20364;-73
2022/04/11 06:16:32;;;;;;;4.30;2.40;;;;;;;;;;5044530;28;20029;-74
2022/04/11 06:18:58;;;;;;;4.72;2.40;;;;;;;;;;5043262;28;20025;-73
2022/04/11 06:21:24;;;;;;;6.70;3.20;;;;;;;;;;5044329;28;20437;-74
2022/04/11 06:23:50;;;;;;;9.73;2.80;;;;;;;;;;5043470;28;20479;-73
2022/04/11 06:26:16;;;;;;;6.03;2.50;;;;;;;;;;5029614;28;20029;-73
2022/04/11 06:28:42;;;;;;;7.45;2.78;;;;;;;;;;5045170;28;20029;-73
2022/04/11 06:31:10;;;;;;;5.72;2.80;;;;;;;;;;5041260;28;20021;-73
2022/04/11 06:33:36;;;;;;;10.88;3.25;;;;;;;;;;5030927;28;20036;-73
2022/04/11 06:36:02;;;;;;;4.45;2.30;;;;;;;;;;5028434;28;20099;-72
2022/04/11 06:38:28;;;;;;;5.47;2.80;;;;;;;;;;5029369;28;20509;-72
2022/04/11 06:40:58;;;;;;;4.45;2.80;;;;;;;;;;5042423;28;20029;-72
2022/04/11 06:43:24;;;;;;;6.20;2.97;;;;;;;;;;5043324;28;20033;-74
2022/04/11 06:45:50;;;;;;;5.22;2.58;;;;;;;;;;5047582;28;20355;-74
2022/04/11 06:48:17;;;;;;;8.15;2.60;;;;;;;;;;5026206;28;20120;-73
2022/04/11 06:50:45;;;;;;;5.32;2.70;;;;;;;;;;5045759;28;20036;-73
2022/04/11 06:53:14;;;;;;;4.28;2.70;;;;;;;;;;5044100;28;20120;-72
2022/04/11 06:55:40;;;;;;;8.32;2.72;;;;;;;;;;5044181;28;20405;-73
2022/04/11 06:58:06;;;;;;;6.95;3.80;;;;;;;;;;5038605;28;20666;-72
2022/04/11 07:00:32;;;;;;;11.00;3.28;;;;;;;;;;5037844;28;20033;-72
2022/04/11 07:02:58;;;;;;;6.20;2.50;;;;;;;;;;5040543;28;20037;-73
2022/04/11 07:05:24;;;;;;;4.30;2.67;;;;;;;;;;5047537;28;20506;-73
2022/04/11 07:07:50;;;;;;;10.50;2.65;;;;;;;;;;5026554;28;20036;-71
2022/04/11 07:10:17;;;;;;;10.75;3.30;;;;;;;;;;5046668;28;20082;-73
2022/04/11 07:12:43;;;;;;;7.22;2.58;;;;;;;;;;5041929;28;20025;-73
2022/04/11 07:15:09;;;;;;;7.40;3.10;;;;;;;;;;5043520;28;20040;-72
2022/04/11 07:17:35;;;;;;;9.00;3.15;;;;;;;;;;5045175;28;20029;-72
2022/04/11 07:20:02;;;;;;;7.55;2.72;;;;;;;;;;5046625;28;20033;-73
2022/04/11 07:22:28;;;;;;;7.57;2.75;;;;;;;;;;5048087;28;20028;-72
2022/04/11 07:24:54;;;;;;;4.55;2.90;;;;;;;;;;5046161;28;20143;-71
2022/04/11 07:27:20;;;;;;;6.57;2.90;;;;;;;;;;5039748;28;20395;-72
2022/04/11 07:29:46;;;;;;;7.90;3.25;;;;;;;;;;5046240;28;20035;-72
2022/04/11 07:32:12;;;;;;;6.60;3.00;;;;;;;;;;5045403;28;20421;-73
2022/04/11 07:34:40;;;;;;;5.68;2.78;;;;;;;;;;5024877;28;20036;-73
2022/04/11 07:37:07;;;;;;;11.75;4.18;;;;;;;;;;5024154;28;20096;-72
2022/04/11 07:39:33;;;;;;;7.53;2.83;;;;;;;;;;5028739;28;20090;-72
2022/04/11 07:42:00;;;;;;;5.78;2.70;;;;;;;;;;5044948;28;20029;-73
2022/04/11 07:44:27;;;;;;;9.98;2.95;;;;;;;;;;5039505;28;20461;-72
2022/04/11 07:46:53;;;;;;;5.55;3.00;;;;;;;;;;5035879;28;20036;-72
2022/04/11 07:49:19;;;;;;;4.82;2.45;;;;;;;;;;5038212;28;20112;-72
2022/04/11 07:51:45;;;;;;;9.45;3.20;;;;;;;;;;5037999;28;20028;-71
2022/04/11 07:54:11;;;;;;;4.75;2.63;;;;;;;;;;5041453;28;20136;-73
2022/04/11 07:56:37;;;;;;;11.63;3.40;;;;;;;;;;5039651;28;20020;-73
2022/04/11 07:59:03;;;;;;;4.18;3.10;;;;;;;;;;5041246;28;20046;-73
2022/04/11 08:01:29;;;;;;;6.85;3.28;;;;;;;;;;5040079;28;20050;-73
2022/04/11 08:03:55;;;;;;;4.53;2.70;;;;;;;;;;5040043;28;20444;-72
2022/04/11 08:06:21;;;;;;;6.97;3.40;;;;;;;;;;5038567;28;20458;-73
2022/04/11 08:08:48;;;;;;;11.70;4.20;;;;;;;;;;5045841;28;20030;-73
2022/04/11 08:11:18;;;;;;;7.43;3.05;;;;;;;;;;5026998;28;20031;-73
2022/04/11 08:13:45;;;;;;;10.63;3.10;;;;;;;;;;5042347;28;20025;-73
2022/04/11 08:16:12;;;;;;;8.07;3.20;;;;;;;;;;5044212;28;20080;-73
2022/04/11 08:18:38;;;;;;;7.82;2.75;;;;;;;;;;5043131;28;20113;-72
2022/04/11 08:21:05;;;;;;;3.85;2.88;;;;;;;;;;5041204;28;20033;-72
2022/04/11 08:23:31;;;;;;;6.20;3.10;;;;;;;;;;5045467;28;20114;-71
2022/04/11 08:25:57;;;;;;;9.77;3.10;;;;;;;;;;5044148;28;20094;-74
2022/04/11 08:28:24;;;;;;;10.10;3.55;;;;;;;;;;5043057;28;20041;-73
2022/04/11 08:30:51;;;;;;;6.70;3.17;;;;;;;;;;5042433;28;20028;-72
2022/04/11 08:33:17;;;;;;;5.65;3.58;;;;;;;;;;5043638;28;20037;-75
2022/04/11 08:35:43;;;;;;;6.68;3.10;;;;;;;;;;5044206;28;20024;-73
2022/04/11 08:38:10;;;;;;;4.53;3.03;;;;;;;;;;5043727;28;20378;-73
2022/04/11 08:40:36;;;;;;;9.02;2.85;;;;;;;;;;5045254;28;20600;-74
2022/04/11 08:43:02;;;;;;;8.60;3.20;;;;;;;;;;5042693;28;20033;-72
2022/04/11 08:45:30;;;;;;;4.63;2.80;;;;;;;;;;5044255;28;20033;-73
2022/04/11 08:47:56;;;;;;;5.18;2.80;;;;;;;;;;5043677;28;20144;-74
2022/04/11 08:50:26;;;;;;;6.72;2.65;;;;;;;;;;5044202;28;20564;-72
2022/04/11 08:52:54;;;;;;;4.97;2.80;;;;;;;;;;5042409;28;20029;-73
2022/04/11 08:55:21;;;;;;;7.00;2.88;;;;;;;;;;5041925;28;20032;-74
2022/04/11 08:57:47;;;;;;;6.78;3.00;;;;;;;;;;5040108;28;20043;-73
2022/04/11 09:00:19;;;;;;;3.08;2.50;;;;;;;;;;5044819;28;20032;-73
2022/04/11 09:02:45;;;;;;;6.18;2.95;;;;;;;;;;5042479;28;20055;-72
2022/04/11 09:05:12;;;;;;;4.03;3.45;;;;;;;;;;5042164;28;20044;-74
2022/04/11 09:07:54;;;;;;;3.25;2.55;;;;;;;;;;5042528;28;20119;-73
2022/04/11 09:10:23;;;;;;;4.93;2.40;;;;;;;;;;5042827;28;20051;-74
2022/04/11 09:12:56;;;;;;;6.53;3.00;;;;;;;;;;5042996;28;20043;-74
2022/04/11 09:15:26;;;;;;;6.45;3.33;;;;;;;;;;5040869;28;20909;-73
2022/04/11 09:17:53;;;;;;;4.43;3.13;;;;;;;;;;5042094;28;20040;-73
2022/04/11 09:20:21;;;;;;;7.40;2.80;;;;;;;;;;5027572;28;20395;-73
2022/04/11 09:22:48;;;;;;;6.63;2.60;;;;;;;;;;5038668;28;20055;-71
2022/04/11 09:25:21;;;;;;;7.00;2.83;;;;;;;;;;5042306;28;20151;-72
2022/04/11 09:27:48;;;;;;;4.55;2.97;;;;;;;;;;5040887;28;20102;-73
2022/04/11 09:30:28;;;;;;;5.82;2.92;;;;;;;;;;5042402;28;20512;-74
2022/04/11 09:32:57;;;;;;;5.35;2.63;;;;;;;;;;5023885;28;20029;-75
2022/04/11 09:35:25;;;;;;;4.28;2.67;;;;;;;;;;5039590;28;20037;-73
2022/04/11 09:38:08;;;;;;;4.53;2.67;;;;;;;;;;5043526;28;20035;-73
2022/04/11 09:40:40;;;;;;;6.20;2.45;;;;;;;;;;5041955;28;20048;-73
2022/04/11 09:43:07;;;;;;;8.02;3.03;;;;;;;;;;5041677;28;20041;-72
2022/04/11 09:45:33;;;;;;;5.60;2.75;;;;;;;;;;5041726;28;20033;-73
2022/04/11 09:48:00;;;;;;;8.95;4.40;;;;;;;;;;5041842;28;20033;-72
2022/04/11 09:50:28;;;;;;;7.68;2.75;;;;;;;;;;5043262;28;20033;-73
2022/04/11 09:53:05;;;;;;;4.05;2.55;;;;;;;;;;5045641;28;20022;-72
2022/04/11 09:55:33;;;;;;;4.40;2.63;;;;;;;;;;5042329;28;20064;-75
2022/04/11 09:57:59;;;;;;;3.72;2.70;;;;;;;;;;5039795;28;20048;-74
2022/04/11 10:00:25;;;;;;;5.80;2.90;;;;;;;;;;5039704;28;20036;-73
2022/04/11 10:02:51;;;;;;;5.00;2.85;;;;;;;;;;5041747;28;20041;-73
2022/04/11 10:05:17;;;;;;;4.82;2.72;;;;;;;;;;5042181;28;20064;-73
2022/04/11 10:07:45;;;;;;;6.15;2.80;;;;;;;;;;5022443;28;20041;-72
2022/04/11 10:10:15;;;;;;;5.78;2.97;;;;;;;;;;5043004;28;20470;-72
2022/04/11 10:12:42;;;;;;;3.00;2.35;;;;;;;;;;5039100;28;20040;-73
2022/04/11 10:15:09;;;;;;;5.85;2.88;;;;;;;;;;5043780;28;20025;-73
2022/04/11 10:17:35;;;;;;;5.07;2.97;;;;;;;;;;5040363;28;20037;-74
2022/04/11 10:20:01;;;;;;;3.28;2.70;;;;;;;;;;5037968;28;20024;-74
2022/04/11 10:22:28;;;;;;;3.75;3.03;;;;;;;;;;5041667;28;20099;-74
2022/04/11 10:24:57;;;;;;;7.13;4.15;;;;;;;;;;5041868;28;20112;-73
2022/04/11 10:27:28;;;;;;;5.93;3.22;;;;;;;;;;5041074;28;20136;-74
2022/04/11 10:29:54;;;;;;;7.45;3.00;;;;;;;;;;5041442;28;20029;-72
2022/04/11 10:32:21;;;;;;;5.53;3.00;;;;;;;;;;5042890;28;20028;-73
2022/04/11 10:35:00;;;;;;;5.82;3.15;;;;;;;;;;5044108;28;20096;-72
2022/04/11 10:37:46;;;;;;;5.47;2.85;;;;;;;;;;5039666;28;20127;-71
2022/04/11 10:40:19;;;;;;;6.15;3.08;;;;;;;;;;5041571;28;20037;-74
2022/04/11 10:43:01;;;;;;;5.45;2.97;;;;;;;;;;5042540;28;20040;-72
2022/04/11 10:45:47;;;;;;;8.05;3.15;;;;;;;;;;5040872;28;20413;-72
2022/04/11 10:48:14;;;;;;;5.82;2.78;;;;;;;;;;5039861;28;20036;-71
2022/04/11 10:50:44;;;;;;;7.85;3.30;;;;;;;;;;5039652;28;20114;-72
2022/04/11 10:53:16;;;;;;;6.97;3.25;;;;;;;;;;5042154;28;20567;-72
2022/04/11 10:55:59;;;;;;;8.85;3.90;;;;;;;;;;5043280;28;20025;-73
2022/04/11 10:58:49;;;;;;;8.55;4.18;;;;;;;;;;5040921;28;20021;-73
2022/04/11 11:01:16;;;;;;;7.68;3.53;;;;;;;;;;5032162;28;20042;-73
2022/04/11 11:03:57;;;;;;;4.95;3.45;;;;;;;;;;5024653;28;20435;-76
2022/04/11 11:06:24;;;;;;;7.18;3.53;;;;;;;;;;5022950;28;20061;-75
2022/04/11 11:08:50;;;;;;;4.75;3.67;;;;;;;;;;5038273;28;20030;-74
2022/04/11 11:11:21;;;;;;;5.93;4.03;;;;;;;;;;5039483;28;20044;-75
2022/04/11 11:13:48;;;;;;;5.82;3.42;;;;;;;;;;5039818;28;20425;-74
2022/04/11 11:16:14;;;;;;;9.60;3.45;;;;;;;;;;5042974;28;21495;-76
2022/04/11 11:18:53;;;;;;;5.53;3.75;;;;;;;;;;5024581;28;20032;-76
2022/04/11 11:21:19;;;;;;;11.05;3.60;;;;;;;;;;5044691;28;20028;-76
2022/04/11 11:26:39;;;;;;;5.57;3.15;;;;;;;;;;5042067;28;20425;-75
2022/04/11 11:29:17;;;;;;;9.23;3.80;;;;;;;;;;5044854;28;20112;-74
2022/04/11 11:31:43;;;;;;;7.65;3.42;;;;;;;;;;5045028;28;20033;-75
2022/04/11 11:34:11;;;;;;;4.45;3.45;;;;;;;;;;5045905;28;20115;-75
2022/04/11 11:36:38;;;;;;;4.65;2.80;;;;;;;;;;5047426;28;20108;-74
2022/04/11 11:39:13;;;;;;;6.82;3.47;;;;;;;;;;5028879;28;20025;-77
2022/04/11 11:41:42;;;;;;;;;;;;;;;;;;5046892;28;20039;-74
2022/04/11 11:44:11;;;;;;;5.57;3.20;;;;;;;;;;5048486;28;19928;-75
2022/04/11 11:46:47;;;;;;;5.38;3.35;;;;;;;;;;5040978;28;20082;-72
2022/04/11 11:49:13;;;;;;;8.30;3.78;;;;;;;;;;5043536;28;20049;-74
2022/04/11 11:51:39;;;;;;;5.15;3.53;;;;;;;;;;5039831;28;20041;-73
2022/04/11 11:54:06;;;;;;;5.53;3.83;;;;;;;;;;5040118;28;20611;-73
2022/04/11 11:56:42;;;;;;;6.65;3.55;;;;;;;;;;5045628;28;20116;-75
2022/04/11 11:59:08;;;;;;;8.55;3.83;;;;;;;;;;5040863;28;20332;-74
2022/04/11 12:01:34;;;;;;;7.15;3.08;;;;;;;;;;5048749;28;20025;-75
2022/04/11 12:04:18;;;;;;;6.85;3.95;;;;;;;;;;5032346;28;20422;-75
2022/04/11 12:06:45;;;;;;;10.82;4.10;;;;;;;;;;5050179;28;20493;-75
2022/04/11 12:09:11;;;;;;;12.75;5.30;;;;;;;;;;5052673;28;20104;-74
2022/04/11 12:11:37;;;;;;;9.38;5.32;;;;;;;;;;5051192;28;20021;-75
2022/04/11 12:14:04;;;;;;;8.15;4.32;;;;;;;;;;5031480;28;20471;-75
2022/04/11 12:16:31;;;;;;;7.22;3.53;;;;;;;;;;5049800;28;20017;-74
2022/04/11 12:18:58;;;;;;;6.25;3.75;;;;;;;;;;5049175;28;20818;-73
2022/04/11 12:21:35;;;;;;;7.55;4.00;;;;;;;;;;5048905;28;20591;-75
2022/04/11 12:24:04;;;;;;;8.15;3.83;;;;;;;;;;5049403;28;20032;-75
2022/04/11 12:26:35;;;;;;;10.05;4.35;;;;;;;;;;5051827;28;20056;-74
2022/04/11 12:29:21;;;;;;;6.55;3.58;;;;;;;;;;5051853;28;20029;-74
2022/04/11 12:32:07;;;;;;;10.15;4.00;;;;;;;;;;5050543;28;20024;-75
2022/04/11 12:34:34;;;;;;;8.07;3.30;;;;;;;;;;5048233;28;20025;-74
2022/04/11 12:37:02;;;;;;;11.20;3.78;;;;;;;;;;5051231;28;20029;-73
2022/04/11 12:39:29;;;;;;;11.30;4.28;;;;;;;;;;5051761;28;20516;-74
2022/04/11 12:41:57;;;;;;;10.70;3.63;;;;;;;;;;5052480;28;20123;-73
2022/04/11 12:44:34;;;;;;;6.88;3.97;;;;;;;;;;5034938;28;20021;-74
2022/04/11 12:47:00;;;;;;;7.45;3.58;;;;;;;;;;5052501;28;20041;-73
2022/04/11 12:49:26;;;;;;;5.03;2.85;;;;;;;;;;5053720;28;20036;-72
2022/04/11 12:52:07;;;;;;;4.85;3.25;;;;;;;;;;5055789;28;20029;-72
2022/04/11 12:54:37;;;;;;;7.72;3.78;;;;;;;;;;5033730;28;20021;-74
2022/04/11 12:57:04;;;;;;;6.07;3.95;;;;;;;;;;5027569;28;20087;-75
2022/04/11 12:59:31;;;;;;;7.45;3.35;;;;;;;;;;5042299;28;20040;-75
2022/04/11 13:02:15;;;;;;;5.75;2.67;;;;;;;;;;5043039;28;20525;-73
2022/04/11 13:04:43;;;;;;;10.02;4.00;;;;;;;;;;5043602;28;20029;-74
2022/04/11 13:07:09;;;;;;;6.88;3.45;;;;;;;;;;5045713;28;20098;-74
2022/04/11 13:09:36;;;;;;;6.63;3.72;;;;;;;;;;5046039;28;20021;-75
2022/04/11 13:12:02;;;;;;;8.15;3.50;;;;;;;;;;5044030;28;20041;-75
2022/04/11 13:14:29;;;;;;;7.55;4.53;;;;;;;;;;5045231;28;20067;-74
2022/04/11 13:19:39;;;;;;;8.68;4.00;;;;;;;;;;5042241;28;20040;-74
2022/04/11 13:22:06;;;;;;;6.55;3.75;;;;;;;;;;5048711;28;20461;-75
2022/04/11 13:24:32;;;;;;;9.13;5.10;;;;;;;;;;5049203;28;20037;-75
2022/04/11 13:26:58;;;;;;;7.60;4.10;;;;;;;;;;5045031;28;20147;-75
2022/04/11 13:29:24;;;;;;;14.68;4.95;;;;;;;;;;5044416;28;20040;-76
2022/04/11 13:31:50;;;;;;;10.80;6.25;;;;;;;;;;5042146;28;20517;-74
2022/04/11 13:34:16;;;;;;;12.30;7.45;;;;;;;;;;5042330;28;20110;-74
2022/04/11 13:36:43;;;;;;;6.60;4.05;;;;;;;;;;5041440;28;20037;-76
2022/04/11 13:39:09;;;;;;;6.70;3.45;;;;;;;;;;5043880;28;20029;-74
2022/04/11 13:41:35;;;;;;;7.65;3.10;;;;;;;;;;5042761;28;20021;-75
2022/04/11 13:44:01;;;;;;;14.07;4.60;;;;;;;;;;5044664;28;20032;-75
2022/04/11 13:46:28;;;;;;;7.07;3.53;;;;;;;;;;5042632;28;20489;-73
2022/04/11 13:48:54;;;;;;;3.65;2.90;;;;;;;;;;5043265;28;20095;-74
2022/04/11 13:51:24;;;;;;;7.88;3.25;;;;;;;;;;5023777;28;20025;-75
2022/04/11 13:53:51;;;;;;;10.02;4.18;;;;;;;;;;5041022;28;20037;-72
2022/04/11 13:56:17;;;;;;;8.77;3.33;;;;;;;;;;5039777;28;20092;-74
2022/04/11 13:58:43;;;;;;;6.68;3.00;;;;;;;;;;5022327;28;20026;-75
2022/04/11 14:01:10;;;;;;;11.55;4.85;;;;;;;;;;5038045;28;20025;-75
2022/04/11 14:03:36;;;;;;;5.30;3.17;;;;;;;;;;5041275;28;20045;-75
2022/04/11 14:06:03;;;;;;;6.63;3.40;;;;;;;;;;5042918;28;20156;-75
2022/04/11 14:08:29;;;;;;;6.07;3.50;;;;;;;;;;5043324;28;20032;-74
2022/04/11 14:10:55;;;;;;;4.85;3.10;;;;;;;;;;5041903;28;20029;-74
2022/04/11 14:13:22;;;;;;;7.03;3.42;;;;;;;;;;5042789;28;20029;-75
2022/04/11 14:15:49;;;;;;;7.32;3.45;;;;;;;;;;5039850;28;20017;-73
2022/04/11 14:18:15;;;;;;;7.00;3.38;;;;;;;;;;5043027;28;20457;-74
2022/04/11 14:20:42;;;;;;;7.63;3.17;;;;;;;;;;5023383;28;20025;-74
2022/04/11 14:23:08;;;;;;;5.78;3.03;;;;;;;;;;5042434;28;20075;-73
2022/04/11 14:25:34;;;;;;;9.68;3.90;;;;;;;;;;5040149;28;20063;-73
2022/04/11 14:28:00;;;;;;;5.38;3.30;;;;;;;;;;5044432;28;20037;-73
2022/04/11 14:30:26;;;;;;;6.10;3.90;;;;;;;;;;5044471;28;20048;-74
2022/04/11 14:32:52;;;;;;;7.85;3.70;;;;;;;;;;5040380;28;20238;-75
2022/04/11 14:35:18;;;;;;;6.57;3.30;;;;;;;;;;5042877;28;20470;-71
2022/04/11 14:37:49;;;;;;;5.95;3.65;;;;;;;;;;5038964;28;20021;-72
2022/04/11 14:40:15;;;;;;;7.40;3.25;;;;;;;;;;5042346;28;20509;-74
2022/04/11 14:42:41;;;;;;;9.30;3.55;;;;;;;;;;5020570;28;20037;-74
2022/04/11 14:45:08;;;;;;;6.82;3.60;;;;;;;;;;5041514;28;20025;-75
2022/04/11 14:47:34;;;;;;;8.65;3.60;;;;;;;;;;5042392;28;20656;-75
2022/04/11 14:50:00;;;;;;;10.00;5.65;;;;;;;;;;5042531;28;20028;-75